Germantown, Wisconsin
Current Conditions -  °F | °C
As of 3:45 PM on Thursday 23 Oct 2014 (Local Time) from KMWC Reporting Station
Overcast Overcast  
Wind Chill: 57°   Ceiling: 10000
Heat Index: 57°   Visibility: 10mi
Dew Point: 39°   Wind: 7mph
Humidity: 51%   Direction: 190°S
Pressure: 30.06"   Gusts: NA
Location:  43.22°N, 88.12°W
Report Text: KMWC 232045Z AUTO 19006KT 10SM SCT075 OVC100 14/04 A3006
Loading
Personal Weather Stations






























Interactive Weather Map
Tropical Storm Tracking
New forecast layout! Learn more

10-Day Weather Forecast

Advertisements
Track Severe Weather on mobile